sensor_id;sensor_type;location;lat;lon;timestamp;P1;durP1;ratioP1;P2;durP2;ratioP2
77522;SDS011;66637;-29.628;-49.938;2023-11-22T00:00:16;26.83;;;7.20;;
77522;SDS011;66637;-29.628;-49.938;2023-11-22T00:02:48;22.77;;;6.97;;
77522;SDS011;66637;-29.628;-49.938;2023-11-22T00:05:20;21.88;;;6.53;;
77522;SDS011;66637;-29.628;-49.938;2023-11-22T00:07:51;20.60;;;6.32;;
77522;SDS011;66637;-29.628;-49.938;2023-11-22T00:10:22;23.77;;;8.43;;
77522;SDS011;66637;-29.628;-49.938;2023-11-22T00:12:53;35.75;;;9.93;;
77522;SDS011;66637;-29.628;-49.938;2023-11-22T00:15:27;49.15;;;11.18;;
77522;SDS011;66637;-29.628;-49.938;2023-11-22T00:17:58;32.90;;;8.90;;
77522;SDS011;66637;-29.628;-49.938;2023-11-22T00:20:33;35.55;;;9.63;;
77522;SDS011;66637;-29.628;-49.938;2023-11-22T00:23:04;32.33;;;9.30;;
77522;SDS011;66637;-29.628;-49.938;2023-11-22T00:25:34;18.30;;;7.45;;
77522;SDS011;66637;-29.628;-49.938;2023-11-22T00:28:07;17.63;;;10.02;;
77522;SDS011;66637;-29.628;-49.938;2023-11-22T00:30:38;20.58;;;11.70;;
77522;SDS011;66637;-29.628;-49.938;2023-11-22T00:33:09;19.67;;;9.43;;
77522;SDS011;66637;-29.628;-49.938;2023-11-22T00:35:43;17.02;;;7.22;;
77522;SDS011;66637;-29.628;-49.938;2023-11-22T00:38:14;17.60;;;6.20;;
77522;SDS011;66637;-29.628;-49.938;2023-11-22T00:40:46;12.48;;;5.50;;
77522;SDS011;66637;-29.628;-49.938;2023-11-22T00:43:17;12.52;;;5.65;;
77522;SDS011;66637;-29.628;-49.938;2023-11-22T00:45:52;13.60;;;6.43;;
77522;SDS011;66637;-29.628;-49.938;2023-11-22T00:48:24;10.98;;;5.70;;
77522;SDS011;66637;-29.628;-49.938;2023-11-22T00:50:55;12.30;;;5.57;;
77522;SDS011;66637;-29.628;-49.938;2023-11-22T00:53:25;11.88;;;5.43;;
77522;SDS011;66637;-29.628;-49.938;2023-11-22T00:55:55;11.30;;;5.50;;
77522;SDS011;66637;-29.628;-49.938;2023-11-22T00:58:28;10.45;;;5.35;;
77522;SDS011;66637;-29.628;-49.938;2023-11-22T01:01:01;11.65;;;5.10;;
77522;SDS011;66637;-29.628;-49.938;2023-11-22T01:03:35;9.13;;;4.82;;
77522;SDS011;66637;-29.628;-49.938;2023-11-22T01:06:07;11.63;;;5.30;;
77522;SDS011;66637;-29.628;-49.938;2023-11-22T01:08:40;12.23;;;4.80;;
77522;SDS011;66637;-29.628;-49.938;2023-11-22T01:11:13;7.90;;;4.75;;
77522;SDS011;66637;-29.628;-49.938;2023-11-22T01:13:45;9.10;;;4.47;;
77522;SDS011;66637;-29.628;-49.938;2023-11-22T01:16:16;9.88;;;4.82;;
77522;SDS011;66637;-29.628;-49.938;2023-11-22T01:18:46;25.77;;;6.57;;
77522;SDS011;66637;-29.628;-49.938;2023-11-22T01:21:17;100.47;;;15.80;;
77522;SDS011;66637;-29.628;-49.938;2023-11-22T01:23:50;178.30;;;22.73;;
77522;SDS011;66637;-29.628;-49.938;2023-11-22T01:26:20;174.27;;;24.67;;
77522;SDS011;66637;-29.628;-49.938;2023-11-22T01:28:51;145.00;;;21.10;;
77522;SDS011;66637;-29.628;-49.938;2023-11-22T01:31:21;144.02;;;21.27;;
77522;SDS011;66637;-29.628;-49.938;2023-11-22T01:33:53;180.02;;;23.60;;
77522;SDS011;66637;-29.628;-49.938;2023-11-22T01:36:24;112.28;;;17.67;;
77522;SDS011;66637;-29.628;-49.938;2023-11-22T01:38:55;104.05;;;17.80;;
77522;SDS011;66637;-29.628;-49.938;2023-11-22T01:41:26;90.10;;;16.67;;
77522;SDS011;66637;-29.628;-49.938;2023-11-22T01:43:59;83.53;;;15.75;;
77522;SDS011;66637;-29.628;-49.938;2023-11-22T01:46:29;73.43;;;14.68;;
77522;SDS011;66637;-29.628;-49.938;2023-11-22T01:49:01;87.85;;;14.85;;
77522;SDS011;66637;-29.628;-49.938;2023-11-22T01:51:32;56.33;;;12.52;;
77522;SDS011;66637;-29.628;-49.938;2023-11-22T01:54:02;48.30;;;11.43;;
77522;SDS011;66637;-29.628;-49.938;2023-11-22T01:56:35;34.05;;;9.18;;
77522;SDS011;66637;-29.628;-49.938;2023-11-22T01:59:08;26.20;;;7.82;;
77522;SDS011;66637;-29.628;-49.938;2023-11-22T02:01:42;26.58;;;7.65;;
77522;SDS011;66637;-29.628;-49.938;2023-11-22T02:04:13;35.38;;;9.05;;
77522;SDS011;66637;-29.628;-49.938;2023-11-22T02:06:44;30.75;;;9.00;;
77522;SDS011;66637;-29.628;-49.938;2023-11-22T02:09:15;33.85;;;9.43;;
77522;SDS011;66637;-29.628;-49.938;2023-11-22T02:11:47;40.33;;;10.02;;
77522;SDS011;66637;-29.628;-49.938;2023-11-22T02:14:18;35.88;;;8.88;;
77522;SDS011;66637;-29.628;-49.938;2023-11-22T02:16:48;22.20;;;8.30;;
77522;SDS011;66637;-29.628;-49.938;2023-11-22T02:19:19;29.13;;;8.13;;
77522;SDS011;66637;-29.628;-49.938;2023-11-22T02:21:50;33.70;;;8.68;;
77522;SDS011;66637;-29.628;-49.938;2023-11-22T02:24:21;33.92;;;8.23;;
77522;SDS011;66637;-29.628;-49.938;2023-11-22T02:26:51;30.67;;;7.60;;
77522;SDS011;66637;-29.628;-49.938;2023-11-22T02:29:22;33.95;;;8.05;;
77522;SDS011;66637;-29.628;-49.938;2023-11-22T02:31:53;32.22;;;7.20;;
77522;SDS011;66637;-29.628;-49.938;2023-11-22T02:34:25;35.70;;;7.95;;
77522;SDS011;66637;-29.628;-49.938;2023-11-22T02:36:57;37.30;;;7.93;;
77522;SDS011;66637;-29.628;-49.938;2023-11-22T02:39:49;38.05;;;7.47;;
77522;SDS011;66637;-29.628;-49.938;2023-11-22T02:42:50;56.97;;;9.07;;
77522;SDS011;66637;-29.628;-49.938;2023-11-22T02:45:26;60.42;;;9.90;;
77522;SDS011;66637;-29.628;-49.938;2023-11-22T02:47:59;53.35;;;9.55;;
77522;SDS011;66637;-29.628;-49.938;2023-11-22T02:50:33;67.68;;;9.02;;
77522;SDS011;66637;-29.628;-49.938;2023-11-22T02:53:04;47.33;;;8.93;;
77522;SDS011;66637;-29.628;-49.938;2023-11-22T02:55:35;34.38;;;6.63;;
77522;SDS011;66637;-29.628;-49.938;2023-11-22T02:58:06;27.40;;;5.63;;
77522;SDS011;66637;-29.628;-49.938;2023-11-22T03:00:40;26.35;;;4.97;;
77522;SDS011;66637;-29.628;-49.938;2023-11-22T03:03:11;19.10;;;5.35;;
77522;SDS011;66637;-29.628;-49.938;2023-11-22T03:05:42;26.65;;;5.15;;
77522;SDS011;66637;-29.628;-49.938;2023-11-22T03:08:13;21.52;;;4.68;;
77522;SDS011;66637;-29.628;-49.938;2023-11-22T03:10:45;26.52;;;4.85;;
77522;SDS011;66637;-29.628;-49.938;2023-11-22T03:13:17;22.90;;;4.35;;
77522;SDS011;66637;-29.628;-49.938;2023-11-22T03:15:48;16.10;;;4.22;;
77522;SDS011;66637;-29.628;-49.938;2023-11-22T03:18:19;20.02;;;4.40;;
77522;SDS011;66637;-29.628;-49.938;2023-11-22T03:20:50;16.13;;;4.22;;
77522;SDS011;66637;-29.628;-49.938;2023-11-22T03:23:23;22.17;;;4.30;;
77522;SDS011;66637;-29.628;-49.938;2023-11-22T03:25:55;17.17;;;4.15;;
77522;SDS011;66637;-29.628;-49.938;2023-11-22T03:28:25;80.88;;;9.43;;
77522;SDS011;66637;-29.628;-49.938;2023-11-22T03:31:00;75.85;;;8.30;;
77522;SDS011;66637;-29.628;-49.938;2023-11-22T03:33:32;69.47;;;9.20;;
77522;SDS011;66637;-29.628;-49.938;2023-11-22T03:36:03;85.13;;;10.38;;
77522;SDS011;66637;-29.628;-49.938;2023-11-22T03:38:35;83.55;;;9.70;;
77522;SDS011;66637;-29.628;-49.938;2023-11-22T03:41:06;74.72;;;9.25;;
77522;SDS011;66637;-29.628;-49.938;2023-11-22T03:43:36;61.40;;;8.82;;
77522;SDS011;66637;-29.628;-49.938;2023-11-22T03:46:07;52.28;;;7.57;;
77522;SDS011;66637;-29.628;-49.938;2023-11-22T03:48:40;38.85;;;6.45;;
77522;SDS011;66637;-29.628;-49.938;2023-11-22T03:51:10;49.60;;;6.15;;
77522;SDS011;66637;-29.628;-49.938;2023-11-22T03:53:42;33.75;;;6.05;;
77522;SDS011;66637;-29.628;-49.938;2023-11-22T03:56:14;57.00;;;5.65;;
77522;SDS011;66637;-29.628;-49.938;2023-11-22T03:58:45;42.70;;;4.35;;
77522;SDS011;66637;-29.628;-49.938;2023-11-22T04:01:18;48.80;;;4.35;;
77522;SDS011;66637;-29.628;-49.938;2023-11-22T04:03:50;48.05;;;5.22;;
77522;SDS011;66637;-29.628;-49.938;2023-11-22T04:06:22;72.57;;;5.35;;
77522;SDS011;66637;-29.628;-49.938;2023-11-22T04:08:52;90.75;;;5.80;;
77522;SDS011;66637;-29.628;-49.938;2023-11-22T04:11:22;97.35;;;5.88;;
77522;SDS011;66637;-29.628;-49.938;2023-11-22T04:13:54;141.82;;;6.40;;
77522;SDS011;66637;-29.628;-49.938;2023-11-22T04:16:25;139.57;;;6.45;;
77522;SDS011;66637;-29.628;-49.938;2023-11-22T04:18:58;116.63;;;6.38;;
77522;SDS011;66637;-29.628;-49.938;2023-11-22T04:21:29;173.68;;;7.65;;
77522;SDS011;66637;-29.628;-49.938;2023-11-22T04:23:59;191.02;;;8.45;;
77522;SDS011;66637;-29.628;-49.938;2023-11-22T04:26:30;182.13;;;9.75;;
77522;SDS011;66637;-29.628;-49.938;2023-11-22T04:29:01;296.63;;;10.27;;
77522;SDS011;66637;-29.628;-49.938;2023-11-22T04:31:32;158.98;;;7.15;;
77522;SDS011;66637;-29.628;-49.938;2023-11-22T04:34:03;230.40;;;9.10;;
77522;SDS011;66637;-29.628;-49.938;2023-11-22T04:36:33;212.48;;;10.30;;
77522;SDS011;66637;-29.628;-49.938;2023-11-22T04:39:03;220.07;;;11.70;;
77522;SDS011;66637;-29.628;-49.938;2023-11-22T04:41:37;219.73;;;11.00;;
77522;SDS011;66637;-29.628;-49.938;2023-11-22T04:44:07;238.52;;;10.30;;
77522;SDS011;66637;-29.628;-49.938;2023-11-22T04:46:39;132.95;;;8.13;;
77522;SDS011;66637;-29.628;-49.938;2023-11-22T04:49:10;144.55;;;9.10;;
77522;SDS011;66637;-29.628;-49.938;2023-11-22T04:51:42;83.43;;;9.38;;
77522;SDS011;66637;-29.628;-49.938;2023-11-22T04:54:15;71.28;;;10.82;;
77522;SDS011;66637;-29.628;-49.938;2023-11-22T04:56:47;105.10;;;13.48;;
77522;SDS011;66637;-29.628;-49.938;2023-11-22T04:59:18;122.15;;;15.82;;
77522;SDS011;66637;-29.628;-49.938;2023-11-22T05:01:48;107.00;;;14.93;;
77522;SDS011;66637;-29.628;-49.938;2023-11-22T05:04:19;110.88;;;14.65;;
77522;SDS011;66637;-29.628;-49.938;2023-11-22T05:06:51;112.80;;;15.43;;
77522;SDS011;66637;-29.628;-49.938;2023-11-22T05:09:21;84.82;;;12.07;;
77522;SDS011;66637;-29.628;-49.938;2023-11-22T05:11:51;93.30;;;11.95;;
77522;SDS011;66637;-29.628;-49.938;2023-11-22T05:14:23;64.15;;;8.93;;
77522;SDS011;66637;-29.628;-49.938;2023-11-22T05:16:53;58.13;;;8.82;;
77522;SDS011;66637;-29.628;-49.938;2023-11-22T05:19:26;41.42;;;6.82;;
77522;SDS011;66637;-29.628;-49.938;2023-11-22T05:21:57;35.50;;;6.47;;
77522;SDS011;66637;-29.628;-49.938;2023-11-22T05:24:28;36.17;;;6.80;;
77522;SDS011;66637;-29.628;-49.938;2023-11-22T05:27:00;30.52;;;6.07;;
77522;SDS011;66637;-29.628;-49.938;2023-11-22T05:29:31;24.95;;;5.78;;
77522;SDS011;66637;-29.628;-49.938;2023-11-22T05:32:14;26.63;;;5.35;;
77522;SDS011;66637;-29.628;-49.938;2023-11-22T05:34:46;19.13;;;5.35;;
77522;SDS011;66637;-29.628;-49.938;2023-11-22T05:37:16;41.58;;;7.70;;
77522;SDS011;66637;-29.628;-49.938;2023-11-22T05:39:49;76.93;;;10.23;;
77522;SDS011;66637;-29.628;-49.938;2023-11-22T05:42:19;79.53;;;10.80;;
77522;SDS011;66637;-29.628;-49.938;2023-11-22T05:44:49;64.72;;;10.23;;
77522;SDS011;66637;-29.628;-49.938;2023-11-22T05:47:19;76.65;;;11.20;;
77522;SDS011;66637;-29.628;-49.938;2023-11-22T05:49:51;66.93;;;10.40;;
77522;SDS011;66637;-29.628;-49.938;2023-11-22T05:52:21;64.63;;;10.18;;
77522;SDS011;66637;-29.628;-49.938;2023-11-22T05:54:53;65.47;;;10.70;;
77522;SDS011;66637;-29.628;-49.938;2023-11-22T05:57:29;87.72;;;12.45;;
77522;SDS011;66637;-29.628;-49.938;2023-11-22T06:00:01;94.20;;;14.10;;
77522;SDS011;66637;-29.628;-49.938;2023-11-22T06:02:32;106.22;;;15.07;;
77522;SDS011;66637;-29.628;-49.938;2023-11-22T06:05:04;107.55;;;14.32;;
77522;SDS011;66637;-29.628;-49.938;2023-11-22T06:07:36;111.28;;;14.30;;
77522;SDS011;66637;-29.628;-49.938;2023-11-22T06:10:06;74.03;;;11.93;;
77522;SDS011;66637;-29.628;-49.938;2023-11-22T06:12:37;88.68;;;13.68;;
77522;SDS011;66637;-29.628;-49.938;2023-11-22T06:15:07;69.18;;;11.80;;
77522;SDS011;66637;-29.628;-49.938;2023-11-22T06:17:38;42.58;;;9.55;;
77522;SDS011;66637;-29.628;-49.938;2023-11-22T06:20:09;40.42;;;10.07;;
77522;SDS011;66637;-29.628;-49.938;2023-11-22T06:22:41;25.58;;;9.00;;
77522;SDS011;66637;-29.628;-49.938;2023-11-22T06:25:12;23.13;;;8.40;;
77522;SDS011;66637;-29.628;-49.938;2023-11-22T06:27:42;28.17;;;8.50;;
77522;SDS011;66637;-29.628;-49.938;2023-11-22T06:30:13;22.48;;;7.72;;
77522;SDS011;66637;-29.628;-49.938;2023-11-22T06:32:46;21.45;;;7.63;;
77522;SDS011;66637;-29.628;-49.938;2023-11-22T06:35:18;18.65;;;7.35;;
77522;SDS011;66637;-29.628;-49.938;2023-11-22T06:37:49;24.75;;;8.30;;
77522;SDS011;66637;-29.628;-49.938;2023-11-22T06:40:20;29.63;;;8.10;;
77522;SDS011;66637;-29.628;-49.938;2023-11-22T06:42:51;28.77;;;8.13;;
77522;SDS011;66637;-29.628;-49.938;2023-11-22T06:45:21;34.55;;;9.15;;
77522;SDS011;66637;-29.628;-49.938;2023-11-22T06:47:53;24.50;;;8.50;;
77522;SDS011;66637;-29.628;-49.938;2023-11-22T06:50:25;32.78;;;8.77;;
77522;SDS011;66637;-29.628;-49.938;2023-11-22T06:52:56;28.80;;;9.52;;
77522;SDS011;66637;-29.628;-49.938;2023-11-22T06:55:27;32.80;;;9.15;;
77522;SDS011;66637;-29.628;-49.938;2023-11-22T06:57:57;27.95;;;9.15;;
77522;SDS011;66637;-29.628;-49.938;2023-11-22T07:00:29;26.38;;;9.00;;
77522;SDS011;66637;-29.628;-49.938;2023-11-22T07:03:00;26.58;;;8.50;;
77522;SDS011;66637;-29.628;-49.938;2023-11-22T07:05:31;25.85;;;8.60;;
77522;SDS011;66637;-29.628;-49.938;2023-11-22T07:08:03;23.38;;;8.27;;
77522;SDS011;66637;-29.628;-49.938;2023-11-22T07:10:33;17.23;;;7.70;;
77522;SDS011;66637;-29.628;-49.938;2023-11-22T07:13:04;17.50;;;8.45;;
77522;SDS011;66637;-29.628;-49.938;2023-11-22T07:15:36;15.15;;;7.45;;
77522;SDS011;66637;-29.628;-49.938;2023-11-22T07:18:06;16.17;;;6.95;;
77522;SDS011;66637;-29.628;-49.938;2023-11-22T07:20:39;14.80;;;6.78;;
77522;SDS011;66637;-29.628;-49.938;2023-11-22T07:23:09;20.05;;;7.20;;
77522;SDS011;66637;-29.628;-49.938;2023-11-22T07:25:43;15.25;;;6.57;;
77522;SDS011;66637;-29.628;-49.938;2023-11-22T07:28:15;18.33;;;6.65;;
77522;SDS011;66637;-29.628;-49.938;2023-11-22T07:30:45;15.32;;;6.72;;
77522;SDS011;66637;-29.628;-49.938;2023-11-22T07:33:17;13.30;;;6.18;;
77522;SDS011;66637;-29.628;-49.938;2023-11-22T07:35:49;15.70;;;6.60;;
77522;SDS011;66637;-29.628;-49.938;2023-11-22T07:38:20;21.77;;;7.20;;
77522;SDS011;66637;-29.628;-49.938;2023-11-22T07:40:50;13.45;;;6.03;;
77522;SDS011;66637;-29.628;-49.938;2023-11-22T07:43:21;14.68;;;6.10;;
77522;SDS011;66637;-29.628;-49.938;2023-11-22T07:45:51;13.63;;;6.30;;
77522;SDS011;66637;-29.628;-49.938;2023-11-22T07:48:22;13.73;;;6.05;;
77522;SDS011;66637;-29.628;-49.938;2023-11-22T07:50:52;16.33;;;6.03;;
77522;SDS011;66637;-29.628;-49.938;2023-11-22T07:53:41;16.10;;;6.05;;
77522;SDS011;66637;-29.628;-49.938;2023-11-22T07:56:13;12.05;;;5.78;;
77522;SDS011;66637;-29.628;-49.938;2023-11-22T07:58:46;19.45;;;6.85;;
77522;SDS011;66637;-29.628;-49.938;2023-11-22T08:01:17;23.02;;;6.38;;
77522;SDS011;66637;-29.628;-49.938;2023-11-22T08:03:47;29.23;;;8.40;;
77522;SDS011;66637;-29.628;-49.938;2023-11-22T08:06:21;93.70;;;13.95;;
77522;SDS011;66637;-29.628;-49.938;2023-11-22T08:08:53;98.97;;;14.77;;
77522;SDS011;66637;-29.628;-49.938;2023-11-22T08:11:24;108.40;;;14.45;;
77522;SDS011;66637;-29.628;-49.938;2023-11-22T08:13:57;102.57;;;15.32;;
77522;SDS011;66637;-29.628;-49.938;2023-11-22T08:16:28;81.47;;;14.55;;
77522;SDS011;66637;-29.628;-49.938;2023-11-22T08:18:59;84.32;;;13.35;;
77522;SDS011;66637;-29.628;-49.938;2023-11-22T08:21:29;50.08;;;11.05;;
77522;SDS011;66637;-29.628;-49.938;2023-11-22T08:23:59;59.20;;;9.95;;
77522;SDS011;66637;-29.628;-49.938;2023-11-22T08:26:30;39.72;;;9.10;;
77522;SDS011;66637;-29.628;-49.938;2023-11-22T08:29:01;49.05;;;10.02;;
77522;SDS011;66637;-29.628;-49.938;2023-11-22T08:31:32;37.35;;;8.60;;
77522;SDS011;66637;-29.628;-49.938;2023-11-22T08:34:06;46.55;;;9.70;;
77522;SDS011;66637;-29.628;-49.938;2023-11-22T08:36:36;40.67;;;8.73;;
77522;SDS011;66637;-29.628;-49.938;2023-11-22T08:39:07;38.20;;;8.68;;
77522;SDS011;66637;-29.628;-49.938;2023-11-22T08:41:38;33.22;;;7.90;;
77522;SDS011;66637;-29.628;-49.938;2023-11-22T08:44:10;34.95;;;8.57;;
77522;SDS011;66637;-29.628;-49.938;2023-11-22T08:46:40;50.25;;;9.55;;
77522;SDS011;66637;-29.628;-49.938;2023-11-22T08:49:10;38.80;;;7.97;;
77522;SDS011;66637;-29.628;-49.938;2023-11-22T08:51:40;32.75;;;8.07;;
77522;SDS011;66637;-29.628;-49.938;2023-11-22T08:54:12;44.47;;;8.85;;
77522;SDS011;66637;-29.628;-49.938;2023-11-22T08:56:43;50.88;;;10.27;;
77522;SDS011;66637;-29.628;-49.938;2023-11-22T08:59:17;53.55;;;9.88;;
77522;SDS011;66637;-29.628;-49.938;2023-11-22T09:01:48;34.78;;;8.43;;
77522;SDS011;66637;-29.628;-49.938;2023-11-22T09:04:19;57.83;;;10.25;;
77522;SDS011;66637;-29.628;-49.938;2023-11-22T09:06:49;69.47;;;10.70;;
77522;SDS011;66637;-29.628;-49.938;2023-11-22T09:09:19;76.68;;;11.50;;
77522;SDS011;66637;-29.628;-49.938;2023-11-22T09:11:52;50.13;;;9.60;;
77522;SDS011;66637;-29.628;-49.938;2023-11-22T09:14:22;31.70;;;7.68;;
77522;SDS011;66637;-29.628;-49.938;2023-11-22T09:16:53;20.25;;;6.47;;
77522;SDS011;66637;-29.628;-49.938;2023-11-22T09:19:24;22.42;;;6.47;;
77522;SDS011;66637;-29.628;-49.938;2023-11-22T09:21:55;29.10;;;7.15;;
77522;SDS011;66637;-29.628;-49.938;2023-11-22T09:24:26;37.28;;;8.98;;
77522;SDS011;66637;-29.628;-49.938;2023-11-22T09:26:57;26.83;;;7.18;;
77522;SDS011;66637;-29.628;-49.938;2023-11-22T09:29:28;28.92;;;7.25;;
77522;SDS011;66637;-29.628;-49.938;2023-11-22T09:32:00;29.80;;;7.45;;
77522;SDS011;66637;-29.628;-49.938;2023-11-22T09:34:30;31.80;;;7.28;;
77522;SDS011;66637;-29.628;-49.938;2023-11-22T09:37:02;20.73;;;5.72;;
77522;SDS011;66637;-29.628;-49.938;2023-11-22T09:39:32;35.92;;;7.20;;
77522;SDS011;66637;-29.628;-49.938;2023-11-22T09:42:05;30.35;;;6.70;;
77522;SDS011;66637;-29.628;-49.938;2023-11-22T09:44:35;52.65;;;8.95;;
77522;SDS011;66637;-29.628;-49.938;2023-11-22T09:47:05;32.45;;;7.63;;
77522;SDS011;66637;-29.628;-49.938;2023-11-22T09:49:37;36.30;;;8.48;;
77522;SDS011;66637;-29.628;-49.938;2023-11-22T09:52:10;34.03;;;7.10;;
77522;SDS011;66637;-29.628;-49.938;2023-11-22T09:54:43;43.70;;;8.32;;
77522;SDS011;66637;-29.628;-49.938;2023-11-22T09:57:13;59.00;;;9.07;;
77522;SDS011;66637;-29.628;-49.938;2023-11-22T09:59:47;43.17;;;7.63;;
77522;SDS011;66637;-29.628;-49.938;2023-11-22T10:02:21;51.17;;;9.43;;
77522;SDS011;66637;-29.628;-49.938;2023-11-22T10:04:56;51.45;;;8.65;;
77522;SDS011;66637;-29.628;-49.938;2023-11-22T10:07:27;74.72;;;11.18;;
77522;SDS011;66637;-29.628;-49.938;2023-11-22T10:09:57;50.03;;;9.20;;
77522;SDS011;66637;-29.628;-49.938;2023-11-22T10:12:31;27.23;;;7.47;;
77522;SDS011;66637;-29.628;-49.938;2023-11-22T10:17:55;17.20;;;5.15;;
77522;SDS011;66637;-29.628;-49.938;2023-11-22T10:20:37;17.70;;;5.40;;
77522;SDS011;66637;-29.628;-49.938;2023-11-22T10:23:13;79.30;;;12.50;;
77522;SDS011;66637;-29.628;-49.938;2023-11-22T10:25:44;67.10;;;10.50;;
77522;SDS011;66637;-29.628;-49.938;2023-11-22T10:28:22;64.95;;;11.35;;
77522;SDS011;66637;-29.628;-49.938;2023-11-22T10:30:57;49.90;;;9.00;;
77522;SDS011;66637;-29.628;-49.938;2023-11-22T10:33:28;76.40;;;12.32;;
77522;SDS011;66637;-29.628;-49.938;2023-11-22T10:35:59;54.63;;;10.02;;
77522;SDS011;66637;-29.628;-49.938;2023-11-22T10:38:32;30.95;;;7.35;;
77522;SDS011;66637;-29.628;-49.938;2023-11-22T10:41:05;21.10;;;5.93;;
77522;SDS011;66637;-29.628;-49.938;2023-11-22T10:43:37;19.33;;;5.85;;
77522;SDS011;66637;-29.628;-49.938;2023-11-22T10:46:08;33.90;;;6.57;;
77522;SDS011;66637;-29.628;-49.938;2023-11-22T10:48:42;29.25;;;6.22;;
77522;SDS011;66637;-29.628;-49.938;2023-11-22T10:51:13;34.80;;;7.13;;
77522;SDS011;66637;-29.628;-49.938;2023-11-22T10:53:53;51.33;;;7.95;;
77522;SDS011;66637;-29.628;-49.938;2023-11-22T10:56:25;36.35;;;6.72;;
77522;SDS011;66637;-29.628;-49.938;2023-11-22T10:58:57;39.88;;;6.47;;
77522;SDS011;66637;-29.628;-49.938;2023-11-22T11:01:30;29.55;;;6.35;;
77522;SDS011;66637;-29.628;-49.938;2023-11-22T11:04:01;32.10;;;5.45;;
77522;SDS011;66637;-29.628;-49.938;2023-11-22T11:06:53;32.85;;;6.07;;
77522;SDS011;66637;-29.628;-49.938;2023-11-22T11:09:27;20.95;;;4.78;;
77522;SDS011;66637;-29.628;-49.938;2023-11-22T11:12:02;25.60;;;5.47;;
77522;SDS011;66637;-29.628;-49.938;2023-11-22T11:14:36;25.83;;;5.63;;
77522;SDS011;66637;-29.628;-49.938;2023-11-22T11:17:09;27.58;;;6.75;;
77522;SDS011;66637;-29.628;-49.938;2023-11-22T11:19:40;15.02;;;5.03;;
77522;SDS011;66637;-29.628;-49.938;2023-11-22T11:22:11;31.13;;;6.47;;
77522;SDS011;66637;-29.628;-49.938;2023-11-22T11:24:43;18.58;;;5.97;;
77522;SDS011;66637;-29.628;-49.938;2023-11-22T11:27:19;24.70;;;7.03;;
77522;SDS011;66637;-29.628;-49.938;2023-11-22T11:29:49;28.42;;;8.00;;
77522;SDS011;66637;-29.628;-49.938;2023-11-22T11:32:32;26.42;;;6.47;;
77522;SDS011;66637;-29.628;-49.938;2023-11-22T11:35:04;25.30;;;5.40;;
77522;SDS011;66637;-29.628;-49.938;2023-11-22T11:37:37;23.33;;;5.50;;
77522;SDS011;66637;-29.628;-49.938;2023-11-22T11:40:26;40.38;;;6.95;;
77522;SDS011;66637;-29.628;-49.938;2023-11-22T11:43:02;40.10;;;6.63;;
77522;SDS011;66637;-29.628;-49.938;2023-11-22T11:45:44;34.47;;;7.78;;
77522;SDS011;66637;-29.628;-49.938;2023-11-22T11:48:19;32.10;;;6.53;;
77522;SDS011;66637;-29.628;-49.938;2023-11-22T11:50:52;29.52;;;5.72;;
77522;SDS011;66637;-29.628;-49.938;2023-11-22T11:53:22;29.95;;;5.93;;
77522;SDS011;66637;-29.628;-49.938;2023-11-22T11:55:53;27.85;;;5.70;;
77522;SDS011;66637;-29.628;-49.938;2023-11-22T11:58:25;25.30;;;5.03;;
77522;SDS011;66637;-29.628;-49.938;2023-11-22T12:00:55;25.83;;;4.93;;
77522;SDS011;66637;-29.628;-49.938;2023-11-22T12:03:26;29.05;;;5.82;;
77522;SDS011;66637;-29.628;-49.938;2023-11-22T12:05:56;40.50;;;7.18;;
77522;SDS011;66637;-29.628;-49.938;2023-11-22T12:08:28;29.15;;;5.20;;
77522;SDS011;66637;-29.628;-49.938;2023-11-22T12:11:00;15.77;;;4.30;;
77522;SDS011;66637;-29.628;-49.938;2023-11-22T12:13:32;16.35;;;4.40;;
77522;SDS011;66637;-29.628;-49.938;2023-11-22T12:16:06;18.38;;;4.50;;
77522;SDS011;66637;-29.628;-49.938;2023-11-22T12:18:44;19.50;;;5.22;;
77522;SDS011;66637;-29.628;-49.938;2023-11-22T12:21:19;26.95;;;6.35;;
77522;SDS011;66637;-29.628;-49.938;2023-11-22T12:23:50;29.05;;;5.68;;
77522;SDS011;66637;-29.628;-49.938;2023-11-22T12:26:20;28.85;;;6.93;;
77522;SDS011;66637;-29.628;-49.938;2023-11-22T12:28:51;17.17;;;4.60;;
77522;SDS011;66637;-29.628;-49.938;2023-11-22T12:31:32;18.48;;;4.43;;
77522;SDS011;66637;-29.628;-49.938;2023-11-22T12:34:04;23.77;;;5.93;;
77522;SDS011;66637;-29.628;-49.938;2023-11-22T12:36:35;27.42;;;5.60;;
77522;SDS011;66637;-29.628;-49.938;2023-11-22T12:39:06;31.02;;;6.35;;
77522;SDS011;66637;-29.628;-49.938;2023-11-22T12:41:59;23.80;;;6.43;;
77522;SDS011;66637;-29.628;-49.938;2023-11-22T12:44:48;28.77;;;7.15;;
77522;SDS011;66637;-29.628;-49.938;2023-11-22T12:47:31;39.85;;;7.82;;
77522;SDS011;66637;-29.628;-49.938;2023-11-22T12:50:06;28.10;;;6.75;;
77522;SDS011;66637;-29.628;-49.938;2023-11-22T12:52:38;26.77;;;6.65;;
77522;SDS011;66637;-29.628;-49.938;2023-11-22T12:55:09;35.47;;;7.97;;
77522;SDS011;66637;-29.628;-49.938;2023-11-22T12:57:39;30.85;;;7.20;;
77522;SDS011;66637;-29.628;-49.938;2023-11-22T13:00:14;25.08;;;7.03;;
77522;SDS011;66637;-29.628;-49.938;2023-11-22T13:02:44;26.33;;;7.80;;
77522;SDS011;66637;-29.628;-49.938;2023-11-22T13:05:30;26.00;;;7.80;;
77522;SDS011;66637;-29.628;-49.938;2023-11-22T13:08:01;33.83;;;7.53;;
77522;SDS011;66637;-29.628;-49.938;2023-11-22T13:10:33;33.30;;;8.45;;
77522;SDS011;66637;-29.628;-49.938;2023-11-22T13:13:05;30.55;;;9.10;;
77522;SDS011;66637;-29.628;-49.938;2023-11-22T13:15:38;39.30;;;10.63;;
77522;SDS011;66637;-29.628;-49.938;2023-11-22T13:18:09;35.13;;;9.50;;
77522;SDS011;66637;-29.628;-49.938;2023-11-22T13:20:40;39.63;;;10.13;;
77522;SDS011;66637;-29.628;-49.938;2023-11-22T13:23:12;22.95;;;8.82;;
77522;SDS011;66637;-29.628;-49.938;2023-11-22T13:25:43;31.13;;;10.02;;
77522;SDS011;66637;-29.628;-49.938;2023-11-22T13:28:16;27.35;;;10.90;;
77522;SDS011;66637;-29.628;-49.938;2023-11-22T13:30:46;23.10;;;10.88;;
77522;SDS011;66637;-29.628;-49.938;2023-11-22T13:33:21;24.08;;;12.25;;
77522;SDS011;66637;-29.628;-49.938;2023-11-22T13:35:52;31.95;;;12.30;;
77522;SDS011;66637;-29.628;-49.938;2023-11-22T13:38:22;60.63;;;15.00;;
77522;SDS011;66637;-29.628;-49.938;2023-11-22T13:40:55;56.60;;;16.08;;
77522;SDS011;66637;-29.628;-49.938;2023-11-22T13:43:25;45.40;;;15.73;;
77522;SDS011;66637;-29.628;-49.938;2023-11-22T13:45:56;55.65;;;17.00;;
77522;SDS011;66637;-29.628;-49.938;2023-11-22T13:48:28;38.72;;;15.80;;
77522;SDS011;66637;-29.628;-49.938;2023-11-22T13:50:59;39.58;;;16.35;;
77522;SDS011;66637;-29.628;-49.938;2023-11-22T13:53:32;49.22;;;18.38;;
77522;SDS011;66637;-29.628;-49.938;2023-11-22T13:56:05;46.47;;;17.67;;
77522;SDS011;66637;-29.628;-49.938;2023-11-22T13:58:38;49.53;;;20.55;;
77522;SDS011;66637;-29.628;-49.938;2023-11-22T14:01:11;49.38;;;19.20;;
77522;SDS011;66637;-29.628;-49.938;2023-11-22T14:03:47;49.78;;;21.48;;
77522;SDS011;66637;-29.628;-49.938;2023-11-22T14:06:19;40.50;;;21.30;;
77522;SDS011;66637;-29.628;-49.938;2023-11-22T14:08:49;48.50;;;21.27;;
77522;SDS011;66637;-29.628;-49.938;2023-11-22T14:11:21;55.75;;;23.23;;
77522;SDS011;66637;-29.628;-49.938;2023-11-22T14:13:53;56.33;;;23.67;;
77522;SDS011;66637;-29.628;-49.938;2023-11-22T14:16:25;55.47;;;24.02;;
77522;SDS011;66637;-29.628;-49.938;2023-11-22T14:18:57;50.20;;;22.98;;
77522;SDS011;66637;-29.628;-49.938;2023-11-22T14:21:28;66.05;;;25.45;;